Terminal Aerodrome Forecast
Issued by NWS

Home | Current Version | Previous Version | Text Only | Print | Product List | Glossary On
Versions: 1 2 3 4 5 6 7 8 9 10 11 12 13 14 15 16 17 18 19 20 21
645
FTUS42 KMLB 032016 AAA
TAFISM
TAF AMD
KISM 032016Z 0320/0418 26010KT P6SM VCSH SCT035 BKN060 BKN250
     FM040000 24006KT P6SM SCT040 BKN250
     FM040900 23004KT P6SM SCT010 BKN050
     FM041400 27008KT P6SM VCSH SCT020 BKN040=

USA.gov is the U.S. government's official web portal to all federal, state and local government web resources and services.